CDT,Max TemperatureF,Mean TemperatureF,Min TemperatureF,Max Dew PointF,MeanDew PointF,Min DewpointF,Max Humidity, Mean Humidity, Min Humidity, Max Sea Level PressureIn, Mean Sea Level PressureIn, Min Sea Level PressureIn, Max VisibilityMiles, Mean VisibilityMiles, Min VisibilityMiles, Max Wind SpeedMPH, Mean Wind SpeedMPH, Max Gust SpeedMPH,PrecipitationIn, CloudCover, Events, WindDirDegrees
2013-6-1,70,59,47,47,45,43,83,57,39,30.13,29.99,29.86,10,10,2,26,14,37,0.00,3,,331
2013-6-2,75,58,40,47,44,40,96,62,34,30.17,30.08,29.94,10,10,10,12,4,18,0.00,0,,104
2013-6-3,90,71,51,65,53,46,86,60,31,29.94,29.77,29.59,10,10,5,26,12,39,0.21,1,Rain-Thunderstorm,139
2013-6-4,81,71,60,63,61,59,97,77,52,30.02,29.86,29.69,10,9,2,17,8,21,0.50,4,Rain-Thunderstorm,63
2013-6-5,68,60,51,63,54,48,100,85,56,30.14,30.06,29.93,10,7,1,20,11,29,0.40,6,Rain,347
2013-6-6,78,62,46,54,50,45,100,68,37,30.08,30.03,29.96,10,10,10,9,4,,0.00,1,,7
2013-6-7,83,67,50,57,52,48,97,64,31,30.04,29.94,29.81,10,10,10,15,4,20,0.00,1,,127
2013-6-8,81,68,55,61,56,51,80,67,40,29.87,29.73,29.62,10,10,10,16,9,26,0.02,2,Rain,202
2013-6-9,91,71,51,55,49,43,89,53,19,29.91,29.87,29.81,10,10,10,16,8,34,0.00,0,,300
2013-6-10,103,78,53,68,56,49,83,47,26,29.88,29.74,29.62,10,10,10,17,7,22,0.00,0,Thunderstorm,127
2013-6-11,111,93,75,58,51,40,45,27,9,29.69,29.60,29.49,10,10,10,24,14,37,0.00,0,,198
2013-6-12,99,82,65,66,57,48,78,44,18,30.01,29.81,29.54,10,10,10,22,16,34,0.00,0,,353
2013-6-13,91,74,57,62,56,52,83,58,34,30.08,30.00,29.88,10,10,10,22,10,28,0.00,0,,97
2013-6-14,105,86,67,67,57,46,90,46,16,29.94,29.80,29.68,10,10,7,26,10,43,T,1,Rain-Thunderstorm,158
2013-6-15,95,82,68,68,62,53,90,60,33,29.96,29.85,29.76,10,10,10,13,5,,0.00,2,,185
2013-6-16,91,75,59,68,58,53,94,61,28,30.11,29.97,29.86,10,7,0,30,9,39,1.30,3,Fog-Rain-Thunderstorm,41
2013-6-17,86,73,59,64,60,55,96,68,36,30.07,29.99,29.91,10,10,7,12,6,,0.01,0,,70
2013-6-18,88,76,63,62,60,57,90,71,39,30.06,29.98,29.90,10,9,1,28,7,36,0.18,1,Rain-Thunderstorm,121
2013-6-19,88,76,63,64,62,57,97,66,41,29.94,29.86,29.77,10,10,10,20,7,28,0.06,3,Rain,159
2013-6-20,97,84,71,68,65,59,90,64,29,29.85,29.75,29.66,10,10,8,22,15,33,T,2,,176
2013-6-21,101,86,71,65,60,53,81,44,21,29.87,29.74,29.65,10,10,10,26,14,39,T,0,Rain-Thunderstorm,184
2013-6-22,97,85,72,65,62,60,73,49,32,29.84,29.69,29.60,10,10,10,26,13,39,0.00,0,,165
2013-6-23,93,80,66,61,60,55,70,55,51,29.81,29.74,29.62,10,10,10,22,14,29,0.00,1,,81
2013-6-24,100,84,67,65,58,45,84,37,17,29.78,29.68,29.55,10,10,9,24,13,38,T,0,Thunderstorm,176
2013-6-25,101,85,69,65,57,45,69,42,16,29.75,29.63,29.57,10,10,10,23,11,36,0.00,0,,55
2013-6-26,104,84,63,60,54,46,75,40,15,29.87,29.82,29.75,10,10,9,13,5,17,0.00,0,,112
2013-6-27,109,91,72,71,65,55,82,49,18,30.03,29.87,29.81,10,10,10,25,9,33,0.00,0,,279
2013-6-28,98,83,67,68,58,50,93,50,20,30.06,30.01,29.95,10,10,10,20,8,28,0.00,0,Thunderstorm,359
2013-6-29,91,76,61,56,51,44,75,43,26,30.03,29.99,29.94,10,10,10,18,8,29,0.00,1,,352
2013-6-30,86,71,56,54,49,42,78,48,24,30.12,30.06,30.01,10,10,9,16,7,24,0.00,1,,23